Time;durP1;ratioP1;P1;durP2;ratioP2;P2;SDS_P1;SDS_P2;PMS_P1;PMS_P2;Temp;Humidity;BMP_temperature;BMP_pressure;BME280_temperature;BME280_humidity;BME280_pressure;Samples;Min_cycle;Max_cycle;Signal;HPM_P1;HPM_P2
2023/03/06 00:00:56;;;;;;;7.40;3.90;;;;;;;-0.48;63.40;98295.55;107249;1256;73941;-40
2023/03/06 00:03:26;;;;;;;8.40;3.90;;;;;;;-0.56;63.94;98300.80;106537;1260;1002790;-39
2023/03/06 00:05:57;;;;;;;10.80;4.50;;;;;;;-0.64;64.86;98302.87;107296;1256;72017;-40
2023/03/06 00:08:27;;;;;;;6.60;3.50;;;;;;;-0.65;65.48;98306.13;107283;1256;62447;-39
2023/03/06 00:10:59;;;;;;;6.60;3.90;;;;;;;-0.67;66.03;98305.71;107259;1256;61281;-40
2023/03/06 00:13:33;;;;;;;7.50;3.80;;;;;;;-0.72;66.99;98305.64;107259;1256;74975;-39
2023/03/06 00:16:05;;;;;;;7.30;3.30;;;;;;;-0.77;67.89;98303.09;107263;1256;69910;-39
2023/03/06 00:18:34;;;;;;;9.90;3.90;;;;;;;-0.84;68.91;98302.49;107258;1256;73857;-39
2023/03/06 00:21:13;;;;;;;8.10;3.60;;;;;;;-0.86;69.34;98303.23;107216;1257;61038;-40
2023/03/06 00:23:49;;;;;;;7.50;3.50;;;;;;;-0.83;69.98;98307.40;107253;1256;60922;-40
2023/03/06 00:26:17;;;;;;;10.20;3.70;;;;;;;-0.82;70.48;98300.48;107246;1256;74928;-40
2023/03/06 00:28:46;;;;;;;8.60;4.10;;;;;;;-0.86;71.15;98303.73;107303;1257;69593;-40
2023/03/06 00:31:17;;;;;;;9.60;3.90;;;;;;;-0.91;71.53;98300.02;107247;1256;72284;-40
2023/03/06 00:33:46;;;;;;;7.40;3.60;;;;;;;-0.97;71.82;98295.34;107222;1256;61116;-40
2023/03/06 00:36:15;;;;;;;8.20;3.90;;;;;;;-1.04;72.28;98296.84;107223;1256;61558;-39
2023/03/06 00:38:44;;;;;;;8.00;4.20;;;;;;;-1.03;72.50;98293.92;107213;1256;75043;-40
2023/03/06 00:41:13;;;;;;;8.70;3.90;;;;;;;-0.98;72.71;98287.02;107242;1256;69921;-40
2023/03/06 00:43:42;;;;;;;6.90;4.00;;;;;;;-0.95;72.87;98288.55;107221;1256;74001;-40
2023/03/06 00:46:10;;;;;;;7.80;3.40;;;;;;;-0.92;73.09;98286.44;107292;1260;60791;-39
2023/03/06 00:48:39;;;;;;;8.60;3.80;;;;;;;-0.93;73.30;98282.92;106601;1256;1003025;-40
2023/03/06 00:51:08;;;;;;;10.30;3.70;;;;;;;-0.93;73.42;98285.13;107312;1256;74945;-40
2023/03/06 00:53:40;;;;;;;6.30;3.60;;;;;;;-0.87;73.41;98280.77;107252;1256;69980;-39
2023/03/06 00:56:09;;;;;;;7.70;3.60;;;;;;;-0.78;73.58;98278.27;107247;1256;73874;-40
2023/03/06 00:58:39;;;;;;;6.60;3.70;;;;;;;-0.73;73.40;98273.26;107207;1256;60799;-39
2023/03/06 01:01:07;;;;;;;10.70;4.00;;;;;;;-0.73;73.50;98273.38;107337;1256;61503;-39
2023/03/06 01:03:36;;;;;;;8.10;3.80;;;;;;;-0.73;73.39;98273.10;107265;1256;74987;-40
2023/03/06 01:06:06;;;;;;;6.80;3.80;;;;;;;-0.75;73.50;98272.04;107280;1256;68733;-40
2023/03/06 01:08:36;;;;;;;6.50;3.30;;;;;;;-0.76;73.68;98268.25;107301;1256;72944;-40
2023/03/06 01:11:06;;;;;;;6.80;3.70;;;;;;;-0.72;73.53;98263.49;107343;1257;62362;-40
2023/03/06 01:13:34;;;;;;;9.60;4.20;;;;;;;-0.63;73.46;98265.72;107259;1256;61326;-40
2023/03/06 01:16:08;;;;;;;9.50;3.80;;;;;;;-0.57;73.43;98258.41;107258;1256;75073;-40
2023/03/06 01:18:37;;;;;;;7.50;3.40;;;;;;;-0.56;73.36;98257.84;107286;1260;67990;-40
2023/03/06 01:21:05;;;;;;;7.30;3.80;;;;;;;-0.58;73.46;98250.23;107319;1260;73900;-39
2023/03/06 01:23:35;;;;;;;;;;;;;;;-0.55;73.28;98252.98;107341;1260;60444;-39
2023/03/06 01:26:04;;;;;;;8.90;3.90;;;;;;;-0.64;73.34;98248.19;107083;1256;60409;-39
2023/03/06 01:28:36;;;;;;;7.60;2.90;;;;;;;-0.80;73.76;98234.31;107265;1256;76231;-40
2023/03/06 01:31:05;;;;;;;6.40;3.40;;;;;;;-0.66;73.73;98251.14;107263;1260;69941;-40
2023/03/06 01:33:36;;;;;;;6.40;3.60;;;;;;;-0.60;73.68;98243.86;107401;1260;73803;-40
2023/03/06 01:36:06;;;;;;;6.70;3.60;;;;;;;-0.54;73.75;98245.59;107462;1257;60202;-40
2023/03/06 01:38:35;;;;;;;6.60;3.90;;;;;;;-0.51;73.61;98245.50;107470;1257;61301;-39
2023/03/06 01:41:04;;;;;;;7.30;3.50;;;;;;;-0.51;73.68;98242.98;107462;1259;74806;-40
2023/03/06 01:43:34;;;;;;;5.80;3.20;;;;;;;-0.47;73.59;98240.59;107433;1257;69948;-39
2023/03/06 01:46:21;;;;;;;;;;;;;;;-0.41;73.66;98237.10;107129;1262;73533;-40
2023/03/06 01:49:19;;;;;;;5.50;2.90;;;;;;;-0.48;73.37;98232.62;107215;1260;62290;-40
2023/03/06 01:51:59;;;;;;;5.70;3.30;;;;;;;-0.47;73.34;98237.27;107262;1258;61237;-40
2023/03/06 01:54:33;;;;;;;5.60;3.30;;;;;;;-0.37;73.50;98235.46;107093;1257;74997;-40
2023/03/06 01:57:04;;;;;;;9.20;4.10;;;;;;;-0.27;73.48;98236.48;107250;1257;69899;-40
2023/03/06 01:59:33;;;;;;;6.70;4.00;;;;;;;-0.20;73.42;98234.04;107049;1256;73880;-40
2023/03/06 02:02:02;;;;;;;8.70;3.90;;;;;;;-0.11;73.15;98235.80;107269;1257;60788;-40
2023/03/06 02:04:31;;;;;;;7.00;3.70;;;;;;;-0.04;73.05;98232.48;107031;1256;61682;-40
2023/03/06 02:06:59;;;;;;;7.70;3.90;;;;;;;-0.02;72.69;98232.30;107082;1262;75069;-40
2023/03/06 02:09:33;;;;;;;10.10;4.40;;;;;;;-0.00;72.54;98231.98;107061;1263;68851;-40
2023/03/06 02:12:08;;;;;;;8.90;4.10;;;;;;;0.02;72.28;98224.61;107295;1257;71922;-40
2023/03/06 02:14:38;;;;;;;9.70;4.30;;;;;;;0.07;72.26;98222.73;107135;1256;61146;-41
2023/03/06 02:17:10;;;;;;;8.70;4.00;;;;;;;0.21;71.69;98225.40;107273;1257;61226;-41
2023/03/06 02:20:08;;;;;;;8.10;3.70;;;;;;;0.33;71.68;98219.43;107253;1261;75082;-41
2023/03/06 02:22:56;;;;;;;8.50;4.10;;;;;;;0.44;71.46;98218.48;107066;1257;69938;-41
2023/03/06 02:25:35;;;;;;;7.30;3.80;;;;;;;0.50;70.85;98218.55;107068;1256;73326;-41
2023/03/06 02:28:06;;;;;;;5.00;3.70;;;;;;;0.56;70.75;98214.38;107104;1256;60777;-41
2023/03/06 02:30:36;;;;;;;7.30;3.20;;;;;;;0.61;70.42;98211.85;107088;1256;60829;-41
2023/03/06 02:33:05;;;;;;;9.80;3.80;;;;;;;0.65;70.10;98209.79;106521;1257;1003115;-41
2023/03/06 02:35:34;;;;;;;8.10;4.00;;;;;;;0.69;69.93;98209.04;107193;1262;69960;-40
2023/03/06 02:38:11;;;;;;;10.10;4.00;;;;;;;0.72;69.72;98207.38;107246;1260;72661;-41
2023/03/06 02:40:43;;;;;;;8.30;4.10;;;;;;;0.73;69.43;98211.65;107075;1257;60571;-41
2023/03/06 02:43:12;;;;;;;7.00;4.00;;;;;;;0.74;69.32;98210.70;107297;1260;61344;-41
2023/03/06 02:45:45;;;;;;;6.50;3.40;;;;;;;0.79;68.94;98213.41;107012;1256;74818;-41
2023/03/06 02:48:14;;;;;;;7.70;4.20;;;;;;;0.90;68.77;98214.06;107099;1257;69499;-41
2023/03/06 02:50:43;;;;;;;5.60;3.50;;;;;;;0.98;68.76;98213.20;107309;1260;73773;-41
2023/03/06 02:53:15;;;;;;;7.10;4.10;;;;;;;1.02;68.57;98216.48;107064;1256;60766;-41
2023/03/06 02:55:44;;;;;;;7.80;3.50;;;;;;;1.06;68.31;98215.62;107243;1262;61557;-41
2023/03/06 02:58:18;;;;;;;11.00;3.90;;;;;;;1.08;68.08;98217.52;107280;1260;75333;-41
2023/03/06 03:00:48;;;;;;;5.50;3.30;;;;;;;1.08;68.01;98215.25;107306;1256;69731;-41
2023/03/06 03:03:17;;;;;;;6.10;3.40;;;;;;;1.08;67.94;98214.50;107081;1256;72771;-41
2023/03/06 03:05:45;;;;;;;7.30;3.10;;;;;;;1.08;67.80;98213.55;107256;1257;60406;-41
2023/03/06 03:08:23;;;;;;;6.60;3.50;;;;;;;1.07;67.75;98213.30;107213;1257;61253;-41
2023/03/06 03:10:58;;;;;;;7.10;3.10;;;;;;;1.03;67.69;98213.31;107188;1257;75041;-41
2023/03/06 03:13:30;;;;;;;9.70;3.60;;;;;;;1.00;67.83;98211.44;107252;1256;69665;-41
2023/03/06 03:16:07;;;;;;;8.20;3.60;;;;;;;0.99;67.89;98210.64;107106;1257;72979;-41
2023/03/06 03:18:49;;;;;;;5.50;3.20;;;;;;;1.04;67.81;98210.83;107251;1256;62177;-41
2023/03/06 03:21:20;;;;;;;6.80;3.70;;;;;;;1.15;67.66;98211.40;107291;1256;60617;-41
2023/03/06 03:23:50;;;;;;;9.70;3.40;;;;;;;1.14;67.29;98205.27;106584;1260;1002903;-40
2023/03/06 03:26:20;;;;;;;8.10;3.80;;;;;;;1.16;67.31;98214.64;107291;1257;68841;-41
2023/03/06 03:29:03;;;;;;;7.90;3.80;;;;;;;1.16;67.51;98214.66;107228;1259;72279;-41
2023/03/06 03:31:31;;;;;;;8.00;3.80;;;;;;;1.19;67.41;98216.96;107304;1260;60433;-40
2023/03/06 03:34:01;;;;;;;7.30;3.60;;;;;;;1.22;67.33;98219.46;107309;1260;60452;-40
2023/03/06 03:36:33;;;;;;;8.50;3.50;;;;;;;1.22;66.91;98223.92;107252;1258;75074;-40
2023/03/06 03:39:02;;;;;;;6.90;3.80;;;;;;;1.14;67.01;98224.55;107291;1256;69653;-40
2023/03/06 03:41:32;;;;;;;6.50;3.60;;;;;;;1.01;67.10;98229.94;107123;1257;73939;-40
2023/03/06 03:44:03;;;;;;;5.00;3.30;;;;;;;0.84;67.59;98232.86;107296;1260;60318;-40
2023/03/06 03:46:35;;;;;;;7.60;3.40;;;;;;;0.67;67.80;98233.73;107264;1258;61292;-40
2023/03/06 03:49:06;;;;;;;8.10;3.70;;;;;;;0.56;68.34;98234.95;107229;1258;74922;-40
2023/03/06 03:51:35;;;;;;;8.10;3.50;;;;;;;0.53;68.54;98236.72;107269;1260;69632;-40
2023/03/06 03:54:05;;;;;;;8.90;3.80;;;;;;;0.60;68.90;98238.85;107246;1257;73899;-40
2023/03/06 03:56:39;;;;;;;6.90;3.30;;;;;;;0.66;68.93;98236.60;107273;1260;60484;-40
2023/03/06 03:59:15;;;;;;;10.30;4.70;;;;;;;0.64;68.72;98234.82;107310;1256;60473;-40
2023/03/06 04:01:51;;;;;;;8.10;4.40;;;;;;;0.56;69.04;98232.29;107220;1263;74654;-40
2023/03/06 04:04:20;;;;;;;7.00;3.40;;;;;;;0.51;69.22;98237.05;107280;1262;69645;-40
2023/03/06 04:06:49;;;;;;;9.30;4.90;;;;;;;0.49;69.61;98241.86;106503;1259;1002722;-40
2023/03/06 04:09:21;;;;;;;9.30;4.20;;;;;;;0.43;69.50;98233.70;107222;1258;60457;-40
2023/03/06 04:11:49;;;;;;;8.40;4.10;;;;;;;0.37;69.90;98237.86;106855;1258;442783;-40
2023/03/06 04:15:28;;;;;;;7.40;4.80;;;;;;;0.36;70.04;98241.49;104235;1293;600406;-41
2023/03/06 04:17:57;;;;;;;7.30;4.40;;;;;;;0.33;70.09;98242.51;106784;1269;62341;-41
2023/03/06 04:20:27;;;;;;;7.10;3.90;;;;;;;0.36;70.07;98246.67;106857;1265;61464;-41
2023/03/06 04:22:56;;;;;;;7.80;4.40;;;;;;;0.32;70.16;98246.04;106731;1270;71550;-41
2023/03/06 04:25:25;;;;;;;9.10;4.10;;;;;;;0.26;70.44;98247.61;106844;1269;70389;-41
2023/03/06 04:27:53;;;;;;;8.90;4.30;;;;;;;0.22;70.75;98241.92;106785;1266;73544;-41
2023/03/06 04:30:23;;;;;;;5.70;3.10;;;;;;;0.18;70.68;98250.23;106735;1264;59355;-41
2023/03/06 04:32:52;;;;;;;8.50;4.30;;;;;;;0.14;70.80;98249.27;106894;1264;61182;-41
2023/03/06 04:35:21;;;;;;;7.30;4.00;;;;;;;0.11;71.13;98246.32;106953;1264;73379;-41
2023/03/06 04:37:57;;;;;;;8.80;4.30;;;;;;;0.11;71.21;98249.08;106116;1264;1002864;-41
2023/03/06 04:40:28;;;;;;;;;;;;;;;0.16;71.13;98253.98;106857;1266;74274;-40
2023/03/06 04:42:57;;;;;;;10.20;4.50;;;;;;;0.18;71.26;98255.45;106921;1263;59541;-41
2023/03/06 04:45:26;;;;;;;7.30;5.20;;;;;;;0.18;71.40;98259.41;106892;1264;61326;-39
2023/03/06 04:47:59;;;;;;;9.90;4.80;;;;;;;0.17;71.40;98261.20;106856;1263;74303;-39
2023/03/06 04:50:31;;;;;;;8.40;4.90;;;;;;;0.15;71.48;98260.31;106874;1266;69920;-40
2023/03/06 04:53:02;;;;;;;8.40;5.10;;;;;;;0.12;71.48;98261.52;106894;1264;72666;-40
2023/03/06 04:55:31;;;;;;;10.30;4.70;;;;;;;0.04;71.76;98258.67;106875;1267;60811;-40
2023/03/06 04:58:00;;;;;;;10.30;5.30;;;;;;;0.00;71.76;98261.70;106822;1263;59878;-40
2023/03/06 05:00:31;;;;;;;10.80;4.80;;;;;;;-0.03;72.15;98261.27;106830;1267;73258;-40
2023/03/06 05:03:00;;;;;;;9.60;4.60;;;;;;;-0.02;72.08;98262.73;106827;1266;69981;-40
2023/03/06 05:05:29;;;;;;;9.60;4.90;;;;;;;-0.04;72.42;98267.45;106895;1264;73857;-40
2023/03/06 05:07:58;;;;;;;8.90;4.80;;;;;;;-0.10;72.51;98270.34;106858;1264;60563;-40
2023/03/06 05:10:26;;;;;;;8.90;4.80;;;;;;;-0.12;72.87;98270.90;106819;1263;61533;-40
2023/03/06 05:12:55;;;;;;;8.50;5.40;;;;;;;-0.14;72.88;98273.43;107350;1254;73920;-40
2023/03/06 05:15:23;;;;;;;11.60;5.60;;;;;;;-0.13;73.18;98270.94;107441;1254;69794;-40
2023/03/06 05:17:55;;;;;;;8.60;5.30;;;;;;;-0.10;73.00;98278.45;107387;1254;73895;-40
2023/03/06 05:20:24;;;;;;;7.80;5.20;;;;;;;-0.02;72.87;98278.22;107446;1254;60723;-40
2023/03/06 05:22:55;;;;;;;10.30;6.00;;;;;;;0.03;72.91;98279.35;107456;1254;61387;-40
2023/03/06 05:25:24;;;;;;;11.90;6.10;;;;;;;0.01;72.79;98283.95;107452;1256;74081;-39
2023/03/06 05:27:52;;;;;;;8.60;5.20;;;;;;;0.00;72.77;98289.19;107495;1257;69643;-40
2023/03/06 05:30:22;;;;;;;11.80;5.50;;;;;;;0.04;72.85;98293.82;107321;1258;73309;-40
2023/03/06 05:32:51;;;;;;;8.10;5.10;;;;;;;0.10;72.67;98291.02;107364;1257;59709;-40
2023/03/06 05:35:21;;;;;;;9.60;5.90;;;;;;;0.15;72.66;98294.46;107442;1257;61524;-40
2023/03/06 05:37:49;;;;;;;;;;;;;;;0.27;72.48;98290.79;107505;1257;72898;-40
2023/03/06 05:40:18;;;;;;;10.90;5.90;;;;;;;0.43;72.46;98294.70;107390;1257;67951;-40
2023/03/06 05:42:46;;;;;;;11.20;6.20;;;;;;;0.57;72.23;98299.86;107379;1258;73886;-40
2023/03/06 05:45:15;;;;;;;11.10;6.20;;;;;;;0.72;71.76;98302.59;107482;1257;60420;-40
2023/03/06 05:47:43;;;;;;;11.00;5.90;;;;;;;0.85;70.94;98297.71;107434;1257;60606;-40
2023/03/06 05:50:17;;;;;;;13.10;6.30;;;;;;;0.94;70.33;98304.83;107363;1257;73917;-40
2023/03/06 05:52:46;;;;;;;10.00;6.20;;;;;;;0.99;69.95;98298.09;107364;1257;70369;-40
2023/03/06 05:55:15;;;;;;;10.30;5.80;;;;;;;1.02;68.92;98304.02;107381;1256;72787;-40
2023/03/06 05:57:47;;;;;;;9.70;5.40;;;;;;;1.00;68.68;98313.36;107465;1257;60622;-40
2023/03/06 06:00:16;;;;;;;11.50;5.90;;;;;;;0.94;68.07;98316.19;107547;1257;60276;-40
2023/03/06 06:02:46;;;;;;;11.10;5.40;;;;;;;0.80;67.92;98327.14;107467;1257;74697;-40
2023/03/06 06:05:14;;;;;;;10.70;6.10;;;;;;;0.67;67.89;98329.20;107450;1257;69971;-40
2023/03/06 06:07:46;;;;;;;9.50;5.60;;;;;;;0.61;68.10;98333.14;107447;1256;73914;-40
2023/03/06 06:10:15;;;;;;;8.90;5.50;;;;;;;0.53;68.13;98335.80;107486;1257;60747;-40
2023/03/06 06:12:43;;;;;;;10.70;6.20;;;;;;;0.42;68.55;98341.60;107476;1258;61627;-40
2023/03/06 06:15:13;;;;;;;10.80;6.10;;;;;;;0.34;68.79;98343.93;107512;1256;73303;-40
2023/03/06 06:17:41;;;;;;;10.70;6.00;;;;;;;0.25;68.98;98344.08;107501;1257;70388;-40
2023/03/06 06:20:11;;;;;;;12.30;6.80;;;;;;;0.19;69.24;98348.30;107453;1257;72902;-40
2023/03/06 06:22:40;;;;;;;12.30;6.30;;;;;;;0.11;69.31;98346.58;107499;1260;61180;-40
2023/03/06 06:25:08;;;;;;;10.80;6.40;;;;;;;0.13;69.64;98351.84;107455;1257;61533;-40
2023/03/06 06:27:37;;;;;;;9.70;6.20;;;;;;;0.21;69.30;98354.71;107494;1256;73244;-40
2023/03/06 06:30:09;;;;;;;11.20;6.60;;;;;;;0.30;69.38;98358.67;107490;1256;69920;-40
2023/03/06 06:32:39;;;;;;;10.60;6.30;;;;;;;0.37;69.27;98366.08;107284;1257;73547;-40
2023/03/06 06:35:09;;;;;;;9.90;7.00;;;;;;;0.44;69.05;98369.32;107476;1255;59603;-40
2023/03/06 06:37:37;;;;;;;15.30;7.30;;;;;;;0.47;68.71;98377.61;107473;1256;60047;-40
2023/03/06 06:40:07;;;;;;;13.30;7.20;;;;;;;0.44;68.83;98383.34;107418;1257;74077;-40
2023/03/06 06:42:36;;;;;;;10.50;7.00;;;;;;;0.36;68.85;98385.21;107452;1257;68000;-40
2023/03/06 06:45:09;;;;;;;10.80;6.40;;;;;;;0.32;69.23;98389.79;107446;1257;73860;-39
2023/03/06 06:47:40;;;;;;;12.60;6.50;;;;;;;0.38;69.47;98390.03;107490;1256;60599;-40
2023/03/06 06:50:11;;;;;;;14.00;6.80;;;;;;;0.40;69.38;98392.89;107479;1256;61244;-40
2023/03/06 06:52:40;;;;;;;12.80;6.00;;;;;;;0.40;69.43;98398.28;107384;1257;72937;-40
2023/03/06 06:55:09;;;;;;;9.80;5.50;;;;;;;0.43;69.40;98393.89;107382;1257;69761;-40
2023/03/06 06:57:40;;;;;;;8.60;5.00;;;;;;;0.44;68.92;98400.94;107426;1255;71582;-40
2023/03/06 07:00:10;;;;;;;10.60;5.10;;;;;;;0.43;68.93;98405.80;107381;1257;60862;-40
2023/03/06 07:02:38;;;;;;;7.80;4.80;;;;;;;0.41;68.44;98403.73;107303;1256;59647;-40
2023/03/06 07:05:08;;;;;;;7.50;4.10;;;;;;;0.41;68.44;98408.06;107417;1256;74072;-40
2023/03/06 07:07:37;;;;;;;9.90;4.50;;;;;;;0.47;67.97;98409.22;107461;1257;68531;-40
2023/03/06 07:10:10;;;;;;;8.00;4.80;;;;;;;0.49;67.94;98410.50;107484;1257;73393;-39
2023/03/06 07:12:40;;;;;;;9.10;4.40;;;;;;;0.48;67.89;98413.07;107464;1257;60574;-40
2023/03/06 07:15:12;;;;;;;8.00;4.70;;;;;;;0.49;67.51;98418.22;107449;1257;61274;-40
2023/03/06 07:17:41;;;;;;;8.20;4.70;;;;;;;0.51;67.56;98419.45;107375;1255;73427;-40
2023/03/06 07:20:13;;;;;;;6.10;3.60;;;;;;;0.54;67.39;98421.41;107332;1257;69729;-40
2023/03/06 07:22:44;;;;;;;9.00;4.60;;;;;;;0.53;66.86;98429.80;107371;1256;73678;-40
2023/03/06 07:25:19;;;;;;;7.40;4.20;;;;;;;0.48;66.35;98431.18;107324;1255;61575;-39
2023/03/06 07:27:53;;;;;;;7.90;4.00;;;;;;;0.48;66.71;98434.30;107368;1257;61572;-39
2023/03/06 07:30:21;;;;;;;7.30;4.00;;;;;;;0.53;67.18;98436.38;107485;1257;74211;-39
2023/03/06 07:32:54;;;;;;;9.70;4.50;;;;;;;0.59;67.16;98431.01;107388;1256;69181;-39
2023/03/06 07:35:23;;;;;;;7.90;4.50;;;;;;;0.63;66.51;98436.39;107456;1257;71265;-39
2023/03/06 07:37:52;;;;;;;7.70;4.40;;;;;;;0.63;66.22;98436.58;106701;1255;1003651;-40
2023/03/06 07:40:23;;;;;;;8.50;4.70;;;;;;;0.63;65.55;98444.90;107486;1257;60775;-39
2023/03/06 07:42:55;;;;;;;8.40;4.70;;;;;;;0.60;65.58;98446.72;107490;1255;74695;-39
2023/03/06 07:45:41;;;;;;;;;;;;;;;0.56;66.24;98452.81;107504;1257;69623;-39
2023/03/06 07:48:11;;;;;;;7.50;3.80;;;;;;;0.51;66.04;98451.44;107505;1260;73859;-39
2023/03/06 07:50:40;;;;;;;6.80;4.00;;;;;;;0.51;65.98;98449.14;107484;1259;60566;-39
2023/03/06 07:53:09;;;;;;;9.40;4.50;;;;;;;0.53;65.71;98450.90;107477;1260;61309;-39
2023/03/06 07:55:39;;;;;;;8.00;4.10;;;;;;;0.59;65.85;98450.55;107499;1256;72548;-39
2023/03/06 07:58:08;;;;;;;8.40;4.10;;;;;;;0.67;64.79;98448.63;107514;1255;68460;-39
2023/03/06 08:00:36;;;;;;;7.90;4.70;;;;;;;0.75;64.62;98449.08;107462;1257;73866;-39
2023/03/06 08:03:05;;;;;;;8.70;4.70;;;;;;;0.91;65.20;98448.90;107464;1257;59742;-40
2023/03/06 08:05:36;;;;;;;9.20;4.80;;;;;;;1.17;65.70;98448.69;107504;1257;59631;-40
2023/03/06 08:08:04;;;;;;;7.50;4.30;;;;;;;1.56;65.64;98446.63;107504;1257;74224;-40
2023/03/06 08:10:33;;;;;;;8.30;4.80;;;;;;;2.01;65.25;98446.23;107498;1257;70602;-40
2023/03/06 08:13:03;;;;;;;7.30;4.00;;;;;;;2.52;62.86;98446.02;107458;1257;73486;-40
2023/03/06 08:15:31;;;;;;;7.80;4.20;;;;;;;2.86;62.03;98449.52;107478;1257;60802;-40
2023/03/06 08:18:00;;;;;;;8.90;4.00;;;;;;;3.06;61.24;98450.98;107480;1257;61557;-40
2023/03/06 08:20:28;;;;;;;6.80;3.90;;;;;;;3.17;60.16;98452.47;107467;1256;74341;-40
2023/03/06 08:22:57;;;;;;;6.70;4.30;;;;;;;3.13;59.99;98448.60;107426;1259;69912;-40
2023/03/06 08:25:25;;;;;;;6.10;3.90;;;;;;;3.21;58.00;98462.16;107460;1255;73922;-40
2023/03/06 08:27:54;;;;;;;6.30;4.00;;;;;;;3.06;56.99;98462.75;107450;1257;60511;-40
2023/03/06 08:30:23;;;;;;;6.80;3.80;;;;;;;2.92;56.18;98465.48;107466;1259;62078;-40
2023/03/06 08:32:52;;;;;;;5.00;3.00;;;;;;;2.88;55.47;98467.16;107459;1255;75058;-40
2023/03/06 08:35:21;;;;;;;5.10;3.50;;;;;;;2.93;53.83;98468.65;107456;1257;70314;-40
2023/03/06 08:37:52;;;;;;;5.10;3.50;;;;;;;3.02;52.41;98471.80;107469;1257;73649;-40
2023/03/06 08:40:22;;;;;;;5.20;3.50;;;;;;;3.14;52.64;98473.20;107454;1257;60816;-40
2023/03/06 08:42:50;;;;;;;8.10;4.00;;;;;;;3.32;52.59;98470.56;107458;1256;60483;-40
2023/03/06 08:45:18;;;;;;;7.30;3.50;;;;;;;3.40;52.39;98475.35;107459;1257;74596;-40
2023/03/06 08:47:47;;;;;;;6.30;3.80;;;;;;;3.39;52.05;98477.23;106730;1257;1003017;-40
2023/03/06 08:50:17;;;;;;;6.10;3.60;;;;;;;3.32;51.99;98482.35;107465;1257;74107;-40
2023/03/06 08:52:46;;;;;;;5.70;3.50;;;;;;;3.35;51.51;98482.32;107434;1257;60319;-40
2023/03/06 08:55:14;;;;;;;7.90;3.90;;;;;;;3.49;52.30;98481.67;107417;1255;61507;-40
2023/03/06 08:57:43;;;;;;;5.50;3.50;;;;;;;3.61;51.69;98484.84;107448;1256;73860;-40
2023/03/06 09:00:16;;;;;;;5.90;3.80;;;;;;;3.72;53.01;98490.55;107418;1257;69770;-40
2023/03/06 09:02:45;;;;;;;5.90;3.50;;;;;;;3.80;52.49;98489.29;107480;1254;72557;-40
2023/03/06 09:05:13;;;;;;;7.00;3.90;;;;;;;3.75;51.51;98494.24;107470;1255;60543;-40
2023/03/06 09:07:42;;;;;;;5.40;3.30;;;;;;;3.53;51.31;98498.36;107337;1254;60556;-40
2023/03/06 09:10:15;;;;;;;5.40;3.40;;;;;;;3.27;51.46;98498.42;107271;1257;73959;-40
2023/03/06 09:12:45;;;;;;;6.00;3.00;;;;;;;3.08;52.04;98502.27;107299;1257;69810;-40
2023/03/06 09:15:19;;;;;;;7.50;4.00;;;;;;;3.01;52.05;98504.89;107369;1257;73869;-40
2023/03/06 09:17:50;;;;;;;8.10;3.90;;;;;;;3.03;51.82;98502.52;107478;1255;60441;-40
2023/03/06 09:20:19;;;;;;;6.70;3.30;;;;;;;2.98;52.20;98503.88;107540;1256;60180;-41
2023/03/06 09:22:47;;;;;;;7.30;3.60;;;;;;;2.99;52.57;98505.04;107407;1257;73692;-41
2023/03/06 09:25:19;;;;;;;8.90;3.50;;;;;;;2.95;51.60;98505.39;107491;1254;69609;-41
2023/03/06 09:27:48;;;;;;;6.10;3.20;;;;;;;2.93;51.98;98507.36;107472;1255;73530;-41
2023/03/06 09:30:34;;;;;;;6.00;3.80;;;;;;;3.09;51.84;98506.98;107447;1257;60326;-41
2023/03/06 09:33:03;;;;;;;7.00;3.10;;;;;;;3.22;51.37;98510.70;107474;1255;61530;-41
2023/03/06 09:35:31;;;;;;;6.50;3.70;;;;;;;3.26;50.86;98510.87;106736;1256;1002531;-41
2023/03/06 09:38:00;;;;;;;5.90;3.50;;;;;;;3.27;50.19;98517.70;107461;1259;68544;-41
2023/03/06 09:40:54;;;;;;;5.20;3.40;;;;;;;3.27;50.77;98518.30;107458;1254;73593;-41
2023/03/06 09:43:36;;;;;;;5.30;3.30;;;;;;;3.25;51.73;98517.19;107521;1257;60450;-41
2023/03/06 09:46:12;;;;;;;5.90;3.60;;;;;;;3.36;52.06;98511.95;107489;1256;61570;-41
2023/03/06 09:48:49;;;;;;;6.60;3.60;;;;;;;3.47;52.60;98512.56;107476;1254;75150;-40
2023/03/06 09:51:18;;;;;;;6.70;3.60;;;;;;;3.53;50.89;98517.80;107255;1257;69919;-40
2023/03/06 09:54:02;;;;;;;6.50;3.60;;;;;;;3.43;50.33;98513.64;107304;1254;73870;-40
2023/03/06 09:56:32;;;;;;;6.70;3.00;;;;;;;3.33;50.99;98513.32;107429;1255;60423;-40
2023/03/06 09:59:21;;;;;;;7.20;3.60;;;;;;;3.21;50.31;98513.83;107294;1258;60393;-40
2023/03/06 10:02:06;;;;;;;8.20;3.70;;;;;;;2.99;50.65;98517.19;107451;1256;74427;-40
2023/03/06 10:04:43;;;;;;;6.60;3.80;;;;;;;2.77;51.15;98513.84;105996;1256;1003486;-41
2023/03/06 10:07:13;;;;;;;6.60;3.20;;;;;;;2.74;51.26;98515.31;107464;1255;73960;-40
2023/03/06 10:09:47;;;;;;;5.40;3.20;;;;;;;2.73;50.09;98515.98;107498;1256;60706;-40
2023/03/06 10:12:23;;;;;;;5.60;3.00;;;;;;;2.83;50.24;98512.34;107459;1257;61658;-40
2023/03/06 10:15:12;;;;;;;5.50;3.70;;;;;;;3.10;50.24;98511.98;106739;1257;1003601;-41
2023/03/06 10:17:42;;;;;;;;;;;;;;;3.48;49.29;98506.21;107472;1254;69702;-41
2023/03/06 10:20:22;;;;;;;6.40;3.10;;;;;;;3.62;47.63;98509.84;107335;1256;73364;-40
2023/03/06 10:23:07;;;;;;;3.30;2.20;;;;;;;3.65;45.77;98507.95;107505;1258;60634;-40
2023/03/06 10:25:57;;;;;;;4.20;2.60;;;;;;;3.68;45.44;98506.34;107437;1258;61683;-41
2023/03/06 10:28:48;;;;;;;4.80;2.60;;;;;;;3.74;45.73;98509.08;107457;1259;74760;-41
2023/03/06 10:31:22;;;;;;;4.70;2.60;;;;;;;3.79;44.77;98505.39;107117;1254;69830;-41
2023/03/06 10:33:57;;;;;;;5.00;2.70;;;;;;;3.91;45.25;98507.60;107249;1257;73849;-40
2023/03/06 10:36:26;;;;;;;5.00;2.50;;;;;;;4.01;44.15;98509.91;107451;1254;60517;-40
2023/03/06 10:38:56;;;;;;;4.80;2.70;;;;;;;3.95;43.67;98507.30;107463;1254;60321;-41
2023/03/06 10:41:26;;;;;;;4.50;2.60;;;;;;;3.92;44.84;98501.84;106690;1254;1003372;-40
2023/03/06 10:43:58;;;;;;;5.90;2.40;;;;;;;4.11;45.54;98503.79;107452;1254;68960;-41
2023/03/06 10:46:35;;;;;;;3.90;1.90;;;;;;;4.33;43.23;98507.44;107435;1254;73620;-41
2023/03/06 10:49:08;;;;;;;4.10;2.40;;;;;;;4.28;40.80;98508.58;107427;1254;61041;-41
2023/03/06 10:51:36;;;;;;;3.90;2.10;;;;;;;4.03;40.94;98510.21;107449;1255;61442;-41
2023/03/06 10:54:12;;;;;;;4.60;2.40;;;;;;;3.83;41.79;98506.76;107470;1255;73873;-40
2023/03/06 10:56:42;;;;;;;4.20;2.50;;;;;;;3.77;42.31;98506.02;107379;1256;69881;-40
2023/03/06 10:59:16;;;;;;;5.10;2.80;;;;;;;3.85;43.56;98502.23;107342;1257;71609;-40
2023/03/06 11:01:49;;;;;;;4.50;2.00;;;;;;;3.93;41.66;98505.30;107367;1254;60460;-40
2023/03/06 11:04:23;;;;;;;3.50;2.10;;;;;;;3.93;41.73;98501.80;107390;1256;60311;-41
2023/03/06 11:07:15;;;;;;;4.20;2.10;;;;;;;3.91;41.39;98498.98;107366;1254;75039;-40
2023/03/06 11:09:59;;;;;;;3.90;2.30;;;;;;;3.84;41.18;98496.44;107333;1255;68719;-40
2023/03/06 11:12:31;;;;;;;3.90;2.40;;;;;;;3.84;41.31;98497.89;107437;1254;73876;-41
2023/03/06 11:15:05;;;;;;;5.50;2.60;;;;;;;3.59;41.10;98451.56;107437;1254;60764;-41
2023/03/06 11:17:48;;;;;;;4.30;2.60;;;;;;;3.94;41.08;98500.96;107443;1255;61569;-41
2023/03/06 11:20:22;;;;;;;3.60;2.20;;;;;;;3.98;41.07;98501.69;107428;1257;75052;-41
2023/03/06 11:23:02;;;;;;;4.70;2.60;;;;;;;3.91;41.33;98503.56;106701;1257;1002995;-41
2023/03/06 11:25:33;;;;;;;3.40;2.50;;;;;;;3.90;41.40;98501.25;107261;1257;73495;-41
2023/03/06 11:28:05;;;;;;;3.60;2.30;;;;;;;4.15;43.02;98499.60;106727;1254;1003498;-41
2023/03/06 11:30:41;;;;;;;3.40;2.10;;;;;;;4.70;42.98;98498.05;107466;1258;61467;-41
2023/03/06 11:33:15;;;;;;;4.80;2.40;;;;;;;5.20;40.76;98496.79;107499;1257;75085;-41
2023/03/06 11:35:57;;;;;;;4.40;2.30;;;;;;;5.42;39.48;98496.53;107497;1257;69945;-41
2023/03/06 11:38:43;;;;;;;4.90;2.20;;;;;;;5.43;39.83;98493.48;107482;1254;74020;-41
2023/03/06 11:41:43;;;;;;;4.20;2.70;;;;;;;5.53;39.84;98497.87;107457;1256;60730;-41
2023/03/06 11:44:29;;;;;;;4.10;2.50;;;;;;;5.75;39.71;98492.80;107412;1255;61738;-41
2023/03/06 11:47:09;;;;;;;4.10;2.10;;;;;;;6.06;39.26;98495.16;107474;1254;74092;-41
2023/03/06 11:49:48;;;;;;;2.90;2.10;;;;;;;6.39;37.75;98490.11;107467;1257;69716;-41
2023/03/06 11:52:36;;;;;;;2.90;2.10;;;;;;;6.42;36.27;98487.98;107493;1258;72353;-41
2023/03/06 11:55:07;;;;;;;4.00;1.90;;;;;;;6.40;37.62;98489.53;107433;1256;59596;-41